Time;durP1;ratioP1;P1;durP2;ratioP2;P2;SDS_P1;SDS_P2;PMS_P1;PMS_P2;Temp;Humidity;BMP_temperature;BMP_pressure;BME280_temperature;BME280_humidity;BME280_pressure;Samples;Min_cycle;Max_cycle;Signal;HPM_P1;HPM_P2
2022/01/11 00:00:35;;;;;;;78.87;47.43;;;;;;;;;;5092008;28;20468;-80
2022/01/11 00:03:03;;;;;;;77.63;45.33;;;;;;;;;;5073858;28;20050;-81
2022/01/11 00:05:37;;;;;;;73.63;47.23;;;;;;;;;;5109789;28;20059;-81
2022/01/11 00:08:03;;;;;;;71.33;44.60;;;;;;;;;;5112507;28;20043;-80
2022/01/11 00:10:34;;;;;;;77.27;46.70;;;;;;;;;;5112413;28;20046;-81
2022/01/11 00:13:00;;;;;;;68.10;42.83;;;;;;;;;;5111949;28;20176;-81
2022/01/11 00:15:27;;;;;;;74.80;44.47;;;;;;;;;;5076663;28;20048;-81
2022/01/11 00:17:53;;;;;;;78.83;47.93;;;;;;;;;;5073421;28;20174;-81
2022/01/11 00:20:21;;;;;;;;;;;;;;;;;;5090863;28;20440;-81
2022/01/11 00:25:25;;;;;;;70.15;43.63;;;;;;;;;;5091349;28;19927;-80
2022/01/11 00:27:51;;;;;;;67.77;44.07;;;;;;;;;;5114153;28;20044;-79
2022/01/11 00:30:18;;;;;;;65.68;41.80;;;;;;;;;;5129406;27;20413;-80
2022/01/11 00:32:49;;;;;;;;;;;;;;;;;;5114652;28;20040;-81
2022/01/11 00:35:17;;;;;;;69.20;42.67;;;;;;;;;;5114048;28;20244;-80
2022/01/11 00:37:43;;;;;;;63.27;42.23;;;;;;;;;;5097463;28;20051;-83
2022/01/11 00:40:10;;;;;;;66.63;41.47;;;;;;;;;;5115596;28;20044;-80
2022/01/11 00:42:37;;;;;;;60.27;39.63;;;;;;;;;;5115528;28;20055;-80
2022/01/11 00:45:04;;;;;;;70.23;44.47;;;;;;;;;;5085529;28;20079;-79
2022/01/11 00:47:31;;;;;;;69.53;42.50;;;;;;;;;;5094922;28;20071;-81
2022/01/11 00:49:57;;;;;;;61.28;40.00;;;;;;;;;;5094592;28;20044;-80
2022/01/11 00:52:23;;;;;;;64.68;42.78;;;;;;;;;;5094981;28;20087;-79
2022/01/11 00:54:49;;;;;;;65.22;43.05;;;;;;;;;;5101319;27;20035;-81
2022/01/11 00:57:15;;;;;;;63.67;41.35;;;;;;;;;;5094812;28;20044;-80
2022/01/11 00:59:41;;;;;;;66.82;42.72;;;;;;;;;;5094639;28;20051;-81
2022/01/11 01:02:08;;;;;;;63.72;40.53;;;;;;;;;;5094104;28;20048;-81
2022/01/11 01:04:34;;;;;;;65.38;40.75;;;;;;;;;;5093111;28;20051;-80
2022/01/11 01:07:00;;;;;;;65.60;41.97;;;;;;;;;;5125198;27;20063;-81
2022/01/11 01:09:33;;;;;;;74.53;42.85;;;;;;;;;;5094702;28;20056;-80
2022/01/11 01:11:59;;;;;;;66.73;40.60;;;;;;;;;;5094168;28;20048;-81
2022/01/11 01:14:25;;;;;;;70.65;42.72;;;;;;;;;;5093142;28;20404;-81
2022/01/11 01:16:51;;;;;;;66.25;40.65;;;;;;;;;;5091366;28;20369;-81
2022/01/11 01:19:19;;;;;;;68.88;40.83;;;;;;;;;;5093619;28;20043;-81
2022/01/11 01:21:47;;;;;;;73.57;42.13;;;;;;;;;;5086705;28;20153;-79
2022/01/11 01:24:14;;;;;;;71.40;42.73;;;;;;;;;;5073834;28;20067;-81
2022/01/11 01:26:40;;;;;;;71.65;42.60;;;;;;;;;;5075003;28;20051;-80
2022/01/11 01:29:06;;;;;;;69.22;42.28;;;;;;;;;;5074715;28;20126;-81
2022/01/11 01:31:33;;;;;;;71.60;41.92;;;;;;;;;;5088772;28;20048;-81
2022/01/11 01:33:59;;;;;;;73.13;43.70;;;;;;;;;;5093851;28;20044;-81
2022/01/11 01:36:26;;;;;;;71.75;43.72;;;;;;;;;;5094267;28;20091;-81
2022/01/11 01:38:52;;;;;;;69.80;40.70;;;;;;;;;;5095047;28;20052;-82
2022/01/11 01:41:20;;;;;;;;;;;;;;;;;;5093656;28;20040;-81
2022/01/11 01:43:46;;;;;;;;;;;;;;;;;;5094066;28;20402;-81
2022/01/11 01:46:12;;;;;;;80.53;46.17;;;;;;;;;;5092667;28;20192;-81
2022/01/11 01:48:38;;;;;;;;;;;;;;;;;;5093404;28;20396;-81
2022/01/11 01:51:05;;;;;;;77.30;46.57;;;;;;;;;;5091667;28;19920;-82
2022/01/11 01:53:31;;;;;;;70.67;44.93;;;;;;;;;;5093735;28;20044;-81
2022/01/11 01:55:57;;;;;;;72.78;45.88;;;;;;;;;;5092438;28;20052;-81
2022/01/11 01:58:25;;;;;;;83.28;47.72;;;;;;;;;;5093623;28;20056;-82
2022/01/11 02:00:54;;;;;;;89.30;49.33;;;;;;;;;;5092785;28;20049;-82
2022/01/11 02:03:26;;;;;;;80.73;46.17;;;;;;;;;;5087635;28;20052;-81
2022/01/11 02:05:53;;;;;;;81.70;49.83;;;;;;;;;;5105931;28;20060;-81
2022/01/11 02:08:19;;;;;;;89.53;50.03;;;;;;;;;;5074716;28;20094;-79
2022/01/11 02:10:45;;;;;;;94.63;52.00;;;;;;;;;;5072322;28;20040;-80
2022/01/11 02:13:11;;;;;;;85.78;50.53;;;;;;;;;;5073763;28;20045;-80
2022/01/11 02:15:37;;;;;;;91.20;50.72;;;;;;;;;;5089023;28;20057;-79
2022/01/11 02:18:07;;;;;;;77.35;46.05;;;;;;;;;;5072545;28;20073;-81
2022/01/11 02:20:33;;;;;;;105.77;54.37;;;;;;;;;;5072887;28;20054;-79
2022/01/11 02:22:59;;;;;;;99.90;51.20;;;;;;;;;;5073239;28;20503;-79
2022/01/11 02:25:25;;;;;;;93.38;49.90;;;;;;;;;;5071327;28;20508;-79
2022/01/11 02:27:51;;;;;;;99.88;52.75;;;;;;;;;;5073003;28;20069;-78
2022/01/11 02:30:17;;;;;;;99.53;49.85;;;;;;;;;;5072291;28;20052;-79
2022/01/11 02:32:50;;;;;;;96.72;49.58;;;;;;;;;;5073476;28;20456;-79
2022/01/11 02:35:16;;;;;;;94.90;48.80;;;;;;;;;;5104997;27;20155;-79
2022/01/11 02:37:43;;;;;;;97.35;51.40;;;;;;;;;;5072640;28;20052;-79
2022/01/11 02:40:09;;;;;;;107.27;52.57;;;;;;;;;;5071980;28;20070;-79
2022/01/11 02:42:35;;;;;;;93.70;47.63;;;;;;;;;;5071522;28;20131;-78
2022/01/11 02:45:01;;;;;;;108.10;50.58;;;;;;;;;;5091333;28;20518;-79
2022/01/11 02:47:27;;;;;;;95.85;50.03;;;;;;;;;;5092680;28;20442;-78
2022/01/11 02:49:53;;;;;;;92.72;48.92;;;;;;;;;;5092352;28;20040;-78
2022/01/11 02:52:19;;;;;;;98.43;51.42;;;;;;;;;;5092322;28;20075;-78
2022/01/11 02:54:46;;;;;;;101.20;54.40;;;;;;;;;;5078489;28;20076;-78
2022/01/11 02:57:12;;;;;;;105.72;51.08;;;;;;;;;;5072057;28;20049;-79
2022/01/11 02:59:38;;;;;;;126.05;56.03;;;;;;;;;;5071163;28;20518;-78
2022/01/11 03:02:04;;;;;;;102.65;50.03;;;;;;;;;;5077934;28;20403;-78
2022/01/11 03:04:33;;;;;;;119.53;55.25;;;;;;;;;;5092323;28;20161;-78
2022/01/11 03:06:59;;;;;;;136.27;55.87;;;;;;;;;;5111972;28;20055;-78
2022/01/11 03:09:29;;;;;;;124.93;54.88;;;;;;;;;;5112528;28;20043;-78
2022/01/11 03:11:56;;;;;;;121.23;52.67;;;;;;;;;;5111291;28;20407;-78
2022/01/11 03:14:22;;;;;;;126.25;53.45;;;;;;;;;;5112461;28;20108;-78
2022/01/11 03:16:48;;;;;;;135.50;59.03;;;;;;;;;;5112813;28;20056;-78
2022/01/11 03:19:14;;;;;;;133.50;59.88;;;;;;;;;;5112270;28;20057;-78
2022/01/11 03:21:40;;;;;;;138.95;59.50;;;;;;;;;;5112551;28;20043;-81
2022/01/11 03:24:06;;;;;;;146.50;57.88;;;;;;;;;;5126740;28;20048;-78
2022/01/11 03:26:32;;;;;;;135.65;56.65;;;;;;;;;;5112788;28;20047;-78
2022/01/11 03:28:58;;;;;;;155.60;62.60;;;;;;;;;;5112741;28;20135;-81
2022/01/11 03:31:24;;;;;;;161.07;61.30;;;;;;;;;;5111224;28;20043;-79
2022/01/11 03:33:50;;;;;;;126.85;53.90;;;;;;;;;;5104975;28;20063;-78
2022/01/11 03:36:17;;;;;;;145.88;55.40;;;;;;;;;;5091710;28;20139;-78
2022/01/11 03:38:43;;;;;;;140.48;60.40;;;;;;;;;;5092387;28;20066;-77
2022/01/11 03:41:09;;;;;;;150.07;62.78;;;;;;;;;;5091848;28;20044;-79
2022/01/11 03:43:35;;;;;;;150.60;59.75;;;;;;;;;;5109032;28;20395;-78
2022/01/11 03:46:01;;;;;;;154.93;63.22;;;;;;;;;;5092122;28;20044;-78
2022/01/11 03:48:27;;;;;;;133.10;56.85;;;;;;;;;;5107375;28;20055;-77
2022/01/11 03:50:55;;;;;;;148.00;60.42;;;;;;;;;;5092078;28;20044;-77
2022/01/11 03:53:26;;;;;;;133.93;57.20;;;;;;;;;;5091492;28;20047;-81
2022/01/11 03:58:24;;;;;;;134.70;57.67;;;;;;;;;;5091099;28;20044;-79
2022/01/11 04:00:50;;;;;;;127.07;56.37;;;;;;;;;;5105375;28;20044;-80
2022/01/11 04:03:16;;;;;;;124.10;56.10;;;;;;;;;;5107635;28;20425;-77
2022/01/11 04:05:43;;;;;;;134.23;55.63;;;;;;;;;;5115905;28;20117;-79
2022/01/11 04:08:10;;;;;;;122.73;54.07;;;;;;;;;;5095847;28;20056;-79
2022/01/11 04:10:36;;;;;;;137.33;58.07;;;;;;;;;;5111997;28;20122;-78
2022/01/11 04:13:03;;;;;;;139.35;56.47;;;;;;;;;;5102822;28;20061;-78
2022/01/11 04:15:29;;;;;;;123.22;55.58;;;;;;;;;;5099642;28;20127;-78
2022/01/11 04:17:55;;;;;;;132.88;58.95;;;;;;;;;;5115001;28;20048;-76
2022/01/11 04:20:22;;;;;;;142.60;57.88;;;;;;;;;;5114705;28;20083;-78
2022/01/11 04:22:49;;;;;;;144.53;60.87;;;;;;;;;;5116883;27;20047;-77
2022/01/11 04:25:15;;;;;;;147.70;62.90;;;;;;;;;;5094886;28;20073;-74
2022/01/11 04:27:41;;;;;;;151.60;60.43;;;;;;;;;;5100426;28;20039;-76
2022/01/11 04:30:08;;;;;;;151.32;58.60;;;;;;;;;;5105286;28;20412;-76
2022/01/11 04:32:34;;;;;;;151.95;58.65;;;;;;;;;;5084814;28;20044;-75
2022/01/11 04:35:00;;;;;;;166.10;63.92;;;;;;;;;;5097843;28;20063;-77
2022/01/11 04:37:26;;;;;;;142.90;55.60;;;;;;;;;;5098103;28;20513;-78
2022/01/11 04:39:52;;;;;;;148.90;57.80;;;;;;;;;;5100082;28;20058;-77
2022/01/11 04:42:18;;;;;;;144.43;59.72;;;;;;;;;;5113739;28;20058;-76
2022/01/11 04:44:44;;;;;;;162.45;64.30;;;;;;;;;;5114908;28;20089;-76
2022/01/11 04:47:10;;;;;;;153.20;59.92;;;;;;;;;;5113853;28;20433;-76
2022/01/11 04:49:36;;;;;;;139.13;58.00;;;;;;;;;;5114573;28;20043;-76
2022/01/11 04:52:03;;;;;;;135.40;57.10;;;;;;;;;;5097445;28;20048;-76
2022/01/11 04:54:29;;;;;;;153.32;60.10;;;;;;;;;;5095141;28;20054;-77
2022/01/11 04:56:55;;;;;;;149.60;60.85;;;;;;;;;;5114628;27;20040;-75
2022/01/11 04:59:21;;;;;;;131.00;55.00;;;;;;;;;;5113745;28;20044;-76
2022/01/11 05:01:48;;;;;;;123.13;52.33;;;;;;;;;;5103596;28;20048;-77
2022/01/11 05:04:14;;;;;;;125.68;57.47;;;;;;;;;;5095141;28;20058;-75
2022/01/11 05:06:40;;;;;;;116.63;52.17;;;;;;;;;;5055603;28;20871;-77
2022/01/11 05:09:06;;;;;;;119.72;52.65;;;;;;;;;;5054147;28;20052;-76
2022/01/11 05:11:32;;;;;;;117.65;52.83;;;;;;;;;;5054434;28;20059;-76
2022/01/11 05:13:59;;;;;;;117.20;51.42;;;;;;;;;;5055599;28;20545;-77
2022/01/11 05:16:25;;;;;;;116.55;54.22;;;;;;;;;;5054630;28;20045;-75
2022/01/11 05:18:51;;;;;;;108.88;50.90;;;;;;;;;;5063168;28;20111;-75
2022/01/11 05:21:17;;;;;;;106.75;49.50;;;;;;;;;;5074259;28;20044;-78
2022/01/11 05:23:43;;;;;;;95.22;47.83;;;;;;;;;;5057160;28;20242;-79
2022/01/11 05:26:09;;;;;;;98.10;47.63;;;;;;;;;;5054173;28;20061;-84
2022/01/11 05:28:36;;;;;;;98.70;48.85;;;;;;;;;;5052515;28;20040;-79
2022/01/11 05:31:03;;;;;;;94.57;47.00;;;;;;;;;;5053910;28;20053;-77
2022/01/11 05:33:30;;;;;;;96.10;47.93;;;;;;;;;;5053386;28;20075;-77
2022/01/11 05:35:56;;;;;;;95.43;48.15;;;;;;;;;;5054027;28;20045;-77
2022/01/11 05:38:22;;;;;;;89.65;45.83;;;;;;;;;;5053884;28;20052;-83
2022/01/11 05:40:48;;;;;;;88.15;45.42;;;;;;;;;;5052323;28;20064;-82
2022/01/11 05:43:14;;;;;;;94.60;46.53;;;;;;;;;;5056969;28;20181;-81
2022/01/11 05:45:41;;;;;;;89.18;47.90;;;;;;;;;;5073068;28;20048;-83
2022/01/11 05:48:07;;;;;;;;;;;;;;;;;;5074222;28;20048;-81
2022/01/11 05:50:34;;;;;;;86.27;45.30;;;;;;;;;;5073212;28;19981;-82
2022/01/11 05:53:00;;;;;;;88.73;46.33;;;;;;;;;;5073505;28;20040;-82
2022/01/11 05:55:26;;;;;;;90.55;46.00;;;;;;;;;;5071693;28;20044;-81
2022/01/11 05:57:52;;;;;;;86.97;45.40;;;;;;;;;;5072916;28;20056;-80
2022/01/11 06:00:19;;;;;;;86.57;45.45;;;;;;;;;;5073199;28;20393;-80
2022/01/11 06:02:48;;;;;;;88.53;46.60;;;;;;;;;;5060626;28;20044;-81
2022/01/11 06:05:16;;;;;;;90.70;45.20;;;;;;;;;;5062745;28;20056;-81
2022/01/11 06:07:42;;;;;;;91.83;44.70;;;;;;;;;;5075053;28;20060;-84
2022/01/11 06:10:08;;;;;;;84.43;43.95;;;;;;;;;;5093201;28;20084;-83
2022/01/11 06:12:34;;;;;;;82.22;44.22;;;;;;;;;;5079986;28;20076;-81
2022/01/11 06:15:00;;;;;;;94.35;44.25;;;;;;;;;;5093160;28;20047;-80
2022/01/11 06:17:27;;;;;;;90.45;45.72;;;;;;;;;;5093465;28;20044;-80
2022/01/11 06:19:53;;;;;;;83.07;44.85;;;;;;;;;;5074915;28;20050;-79
2022/01/11 06:22:20;;;;;;;82.70;43.58;;;;;;;;;;5093280;28;20075;-80
2022/01/11 06:24:47;;;;;;;85.70;43.70;;;;;;;;;;5092866;28;20070;-76
2022/01/11 06:27:14;;;;;;;92.40;45.00;;;;;;;;;;5093540;28;20051;-78
2022/01/11 06:29:40;;;;;;;76.00;43.40;;;;;;;;;;5097733;28;20453;-79
2022/01/11 06:32:07;;;;;;;84.00;43.67;;;;;;;;;;5106402;28;20043;-77
2022/01/11 06:34:33;;;;;;;90.93;46.08;;;;;;;;;;5116086;27;20040;-81
2022/01/11 06:36:59;;;;;;;88.63;45.80;;;;;;;;;;5110694;28;20039;-78
2022/01/11 06:39:26;;;;;;;86.43;44.37;;;;;;;;;;5111701;28;20051;-77
2022/01/11 06:41:52;;;;;;;88.03;42.90;;;;;;;;;;5104856;28;20052;-76
2022/01/11 06:44:18;;;;;;;88.43;43.97;;;;;;;;;;5106651;28;20039;-75
2022/01/11 06:46:45;;;;;;;84.68;42.35;;;;;;;;;;5110781;28;20111;-75
2022/01/11 06:49:11;;;;;;;83.90;41.60;;;;;;;;;;5112154;28;20044;-75
2022/01/11 06:51:38;;;;;;;81.53;43.45;;;;;;;;;;5104601;28;20519;-76
2022/01/11 06:54:04;;;;;;;84.77;42.37;;;;;;;;;;5110860;28;20514;-77
2022/01/11 06:56:30;;;;;;;79.25;42.78;;;;;;;;;;5093850;28;20120;-73
2022/01/11 06:58:56;;;;;;;83.90;43.00;;;;;;;;;;5108613;28;20059;-74
2022/01/11 07:01:22;;;;;;;78.68;41.72;;;;;;;;;;5101719;28;20059;-73
2022/01/11 07:03:49;;;;;;;79.72;40.88;;;;;;;;;;5091605;28;20126;-77
2022/01/11 07:06:15;;;;;;;77.65;41.83;;;;;;;;;;5109820;28;20061;-74
2022/01/11 07:08:41;;;;;;;82.45;42.42;;;;;;;;;;5111939;28;20054;-75
2022/01/11 07:11:07;;;;;;;80.90;42.72;;;;;;;;;;5111484;28;20047;-74
2022/01/11 07:13:33;;;;;;;80.22;40.10;;;;;;;;;;5112584;28;20054;-74
2022/01/11 07:15:59;;;;;;;70.50;38.42;;;;;;;;;;5098246;28;20718;-75
2022/01/11 07:18:25;;;;;;;72.13;38.25;;;;;;;;;;5091590;28;20040;-74
2022/01/11 07:20:51;;;;;;;74.72;40.88;;;;;;;;;;5102586;28;20434;-75
2022/01/11 07:23:17;;;;;;;73.40;38.00;;;;;;;;;;5106019;28;20484;-75
2022/01/11 07:25:43;;;;;;;70.38;38.45;;;;;;;;;;5089615;28;20055;-83
2022/01/11 07:28:12;;;;;;;73.50;38.78;;;;;;;;;;5103189;28;20131;-76
2022/01/11 07:30:38;;;;;;;71.13;39.00;;;;;;;;;;5101530;28;20052;-80
2022/01/11 07:33:04;;;;;;;70.43;37.55;;;;;;;;;;5099055;28;20054;-77
2022/01/11 07:35:30;;;;;;;68.10;38.40;;;;;;;;;;5089151;28;20043;-76
2022/01/11 07:37:56;;;;;;;70.63;38.42;;;;;;;;;;5106382;28;20046;-77
2022/01/11 07:40:22;;;;;;;68.35;37.92;;;;;;;;;;5105327;28;20047;-77
2022/01/11 07:42:49;;;;;;;70.03;37.15;;;;;;;;;;5119898;27;20078;-78
2022/01/11 07:45:15;;;;;;;70.60;35.40;;;;;;;;;;5120934;27;20473;-78
2022/01/11 07:47:41;;;;;;;70.95;39.50;;;;;;;;;;5129714;27;20039;-76
2022/01/11 07:50:07;;;;;;;74.30;40.88;;;;;;;;;;5101353;28;20120;-76
2022/01/11 07:52:33;;;;;;;;;;;;;;;;;;5108706;28;20036;-77
2022/01/11 07:55:00;;;;;;;70.63;38.20;;;;;;;;;;5111301;28;19920;-72
2022/01/11 07:57:27;;;;;;;66.37;36.70;;;;;;;;;;5099178;28;20101;-72
2022/01/11 07:59:53;;;;;;;68.28;36.42;;;;;;;;;;5103456;28;20048;-75
2022/01/11 08:02:19;;;;;;;62.58;37.17;;;;;;;;;;5111906;28;20044;-72
2022/01/11 08:04:45;;;;;;;67.93;37.17;;;;;;;;;;5104349;28;20127;-80
2022/01/11 08:07:11;;;;;;;66.70;36.50;;;;;;;;;;5058818;28;20071;-79
2022/01/11 08:09:37;;;;;;;70.47;38.33;;;;;;;;;;5062851;28;20060;-79
2022/01/11 08:12:03;;;;;;;76.95;39.50;;;;;;;;;;5065067;28;20041;-78
2022/01/11 08:14:29;;;;;;;;;;;;;;;;;;5063497;28;20103;-79
2022/01/11 08:16:56;;;;;;;70.13;38.37;;;;;;;;;;5052705;28;20300;-80
2022/01/11 08:19:25;;;;;;;;;;;;;;;;;;5054647;28;20041;-83
2022/01/11 08:21:54;;;;;;;70.43;37.53;;;;;;;;;;5071330;28;19921;-81
2022/01/11 08:24:22;;;;;;;67.23;37.77;;;;;;;;;;5065889;28;20041;-76
2022/01/11 08:26:48;;;;;;;74.43;38.90;;;;;;;;;;5067908;28;20109;-78
2022/01/11 08:29:14;;;;;;;71.22;37.92;;;;;;;;;;5064741;28;20045;-80
2022/01/11 08:31:41;;;;;;;71.10;36.60;;;;;;;;;;5067363;28;20160;-78
2022/01/11 08:34:11;;;;;;;69.18;36.20;;;;;;;;;;5064512;28;20036;-79
2022/01/11 08:36:38;;;;;;;72.67;36.70;;;;;;;;;;5068844;28;20438;-79
2022/01/11 08:39:04;;;;;;;71.63;36.40;;;;;;;;;;5072284;28;20392;-80
2022/01/11 08:41:30;;;;;;;68.30;35.90;;;;;;;;;;5073035;28;20044;-76
2022/01/11 08:43:56;;;;;;;70.55;36.00;;;;;;;;;;5069490;28;20140;-76
2022/01/11 08:46:22;;;;;;;64.88;35.65;;;;;;;;;;5066253;28;20048;-81
2022/01/11 08:48:48;;;;;;;74.32;34.75;;;;;;;;;;5034702;28;20048;-87
2022/01/11 08:51:14;;;;;;;72.63;36.15;;;;;;;;;;5053080;28;20533;-85
2022/01/11 08:53:40;;;;;;;75.82;37.60;;;;;;;;;;5053361;28;20089;-78
2022/01/11 08:56:07;;;;;;;70.00;34.88;;;;;;;;;;5052668;28;20040;-81
2022/01/11 08:58:33;;;;;;;70.53;34.90;;;;;;;;;;5072323;28;20123;-80
2022/01/11 09:00:59;;;;;;;62.78;33.60;;;;;;;;;;5070051;28;20068;-79
2022/01/11 09:03:25;;;;;;;70.22;35.60;;;;;;;;;;5072469;28;20123;-76
2022/01/11 09:05:52;;;;;;;63.53;34.05;;;;;;;;;;5086139;28;20077;-84
2022/01/11 09:08:18;;;;;;;;;;;;;;;;;;5095192;28;20044;-76
2022/01/11 09:10:44;;;;;;;63.80;34.03;;;;;;;;;;5112336;28;19968;-78
2022/01/11 09:13:11;;;;;;;66.93;35.28;;;;;;;;;;5115124;27;20039;-75
2022/01/11 09:15:37;;;;;;;62.40;34.47;;;;;;;;;;5092673;28;20043;-77
2022/01/11 09:18:04;;;;;;;61.90;32.78;;;;;;;;;;5092202;28;20059;-79
2022/01/11 09:20:30;;;;;;;57.40;31.37;;;;;;;;;;5092333;28;20087;-80
2022/01/11 09:22:56;;;;;;;;;;;;;;;;;;5093017;28;20040;-78
2022/01/11 09:25:23;;;;;;;57.30;31.27;;;;;;;;;;5094633;28;19966;-84
2022/01/11 09:27:49;;;;;;;53.43;30.87;;;;;;;;;;5074289;28;20161;-78
2022/01/11 09:30:16;;;;;;;56.45;31.80;;;;;;;;;;5091976;28;20040;-81
2022/01/11 09:32:42;;;;;;;;;;;;;;;;;;5074921;28;20078;-82
2022/01/11 09:35:09;;;;;;;53.77;29.97;;;;;;;;;;5095039;28;19955;-89
2022/01/11 09:37:36;;;;;;;55.70;30.53;;;;;;;;;;5111678;28;20479;-82
2022/01/11 09:40:03;;;;;;;48.93;29.67;;;;;;;;;;5112432;28;20055;-81
2022/01/11 09:42:29;;;;;;;54.37;30.13;;;;;;;;;;5112345;28;20043;-81
2022/01/11 09:44:58;;;;;;;49.92;28.67;;;;;;;;;;5112370;28;20082;-82
2022/01/11 09:47:24;;;;;;;52.43;29.93;;;;;;;;;;5091677;28;20395;-76
2022/01/11 09:49:51;;;;;;;50.75;28.52;;;;;;;;;;5073834;28;20050;-81
2022/01/11 09:52:16;;;;;;;;;;;;;;;;;;5091071;28;20059;-80
2022/01/11 09:54:45;;;;;;;51.67;26.97;;;;;;;;;;5091895;28;20363;-81
2022/01/11 09:57:11;;;;;;;49.97;28.33;;;;;;;;;;5100825;28;20113;-81
2022/01/11 09:59:38;;;;;;;49.22;28.00;;;;;;;;;;5094138;28;20052;-82
2022/01/11 10:02:04;;;;;;;;;;;;;;;;;;5093813;28;20043;-81
2022/01/11 10:04:35;;;;;;;46.80;27.30;;;;;;;;;;5127491;27;19944;-71
2022/01/11 10:07:02;;;;;;;48.63;26.90;;;;;;;;;;5110017;28;20047;-80
2022/01/11 10:09:30;;;;;;;48.93;28.27;;;;;;;;;;5112127;28;20097;-78
2022/01/11 10:12:00;;;;;;;44.43;26.33;;;;;;;;;;5111886;28;20035;-76
2022/01/11 10:14:31;;;;;;;49.03;28.87;;;;;;;;;;5093086;28;20039;-80
2022/01/11 10:17:04;;;;;;;50.13;28.07;;;;;;;;;;5111637;28;20047;-77
2022/01/11 10:19:30;;;;;;;49.03;26.73;;;;;;;;;;5111904;28;20127;-79
2022/01/11 10:22:01;;;;;;;48.47;27.87;;;;;;;;;;5102051;28;20108;-78
2022/01/11 10:24:32;;;;;;;48.17;28.37;;;;;;;;;;5128422;27;20329;-81
2022/01/11 10:27:00;;;;;;;49.70;27.73;;;;;;;;;;5128731;27;20097;-80
2022/01/11 10:29:28;;;;;;;45.43;27.33;;;;;;;;;;5110973;28;20423;-79
2022/01/11 10:31:55;;;;;;;45.43;27.67;;;;;;;;;;5109891;28;20038;-72
2022/01/11 10:34:29;;;;;;;48.83;28.37;;;;;;;;;;5111209;28;20194;-81
2022/01/11 10:36:56;;;;;;;47.37;27.30;;;;;;;;;;5110825;28;20130;-78
2022/01/11 10:39:21;;;;;;;;;;;;;;;;;;5108754;28;20118;-74
2022/01/11 10:41:48;;;;;;;49.40;26.73;;;;;;;;;;5072839;28;20398;-80
2022/01/11 10:44:34;;;;;;;52.60;30.65;;;;;;;;;;5091402;28;20032;-80
2022/01/11 10:47:01;;;;;;;51.83;29.13;;;;;;;;;;5100300;28;20043;-79
2022/01/11 10:49:31;;;;;;;49.00;27.90;;;;;;;;;;5091983;28;20462;-81
2022/01/11 10:52:17;;;;;;;51.03;28.17;;;;;;;;;;5086451;28;20047;-80
2022/01/11 10:54:43;;;;;;;50.83;29.17;;;;;;;;;;5095769;28;20171;-80
2022/01/11 10:57:09;;;;;;;;;;;;;;;;;;5092282;28;20127;-80
2022/01/11 10:59:35;;;;;;;49.77;28.23;;;;;;;;;;5092167;28;20014;-81
2022/01/11 11:02:01;;;;;;;;;;;;;;;;;;5082417;28;20035;-82
2022/01/11 11:04:31;;;;;;;51.50;29.47;;;;;;;;;;5113188;27;19927;-83
2022/01/11 11:07:22;;;;;;;52.63;27.73;;;;;;;;;;5073744;28;20067;-73
2022/01/11 11:09:50;;;;;;;46.00;26.70;;;;;;;;;;5069217;28;20130;-73
2022/01/11 11:12:20;;;;;;;49.10;27.33;;;;;;;;;;5064658;28;20083;-82
2022/01/11 11:14:52;;;;;;;49.43;28.33;;;;;;;;;;5064365;28;20077;-68
2022/01/11 11:17:29;;;;;;;51.57;29.10;;;;;;;;;;5067038;28;20120;-82
2022/01/11 11:19:56;;;;;;;47.88;27.65;;;;;;;;;;5069119;28;20051;-82
2022/01/11 11:22:24;;;;;;;48.17;27.60;;;;;;;;;;5065760;28;20404;-70
2022/01/11 11:24:52;;;;;;;50.30;28.03;;;;;;;;;;5068819;28;20086;-81
2022/01/11 11:27:20;;;;;;;48.20;25.80;;;;;;;;;;5052065;28;20484;-78
2022/01/11 11:29:48;;;;;;;44.37;25.17;;;;;;;;;;5066339;28;20460;-79
2022/01/11 11:32:16;;;;;;;43.73;26.13;;;;;;;;;;5069340;28;20082;-80
2022/01/11 11:34:44;;;;;;;50.00;27.37;;;;;;;;;;5069317;28;20048;-75
2022/01/11 11:37:11;;;;;;;47.00;27.30;;;;;;;;;;5069709;28;20048;-72
2022/01/11 11:39:37;;;;;;;;;;;;;;;;;;5054418;28;20706;-73
2022/01/11 11:42:08;;;;;;;45.20;27.37;;;;;;;;;;5051543;28;19927;-79
2022/01/11 11:44:40;;;;;;;46.60;26.93;;;;;;;;;;5058642;28;20374;-85
2022/01/11 11:47:07;;;;;;;50.93;27.93;;;;;;;;;;5069740;28;20131;-77
2022/01/11 11:49:45;;;;;;;52.83;28.13;;;;;;;;;;5067596;28;20529;-88
2022/01/11 11:52:20;;;;;;;44.30;26.40;;;;;;;;;;5069921;28;20051;-73
2022/01/11 11:54:48;;;;;;;45.35;26.98;;;;;;;;;;5072314;28;20041;-73
2022/01/11 11:57:15;;;;;;;48.07;26.50;;;;;;;;;;5069795;28;20048;-72
2022/01/11 11:59:42;;;;;;;47.70;27.07;;;;;;;;;;5068089;28;20041;-74
2022/01/11 12:02:10;;;;;;;47.37;26.97;;;;;;;;;;5049898;28;20049;-72
2022/01/11 12:04:36;;;;;;;48.20;26.10;;;;;;;;;;5048070;28;20148;-70
2022/01/11 12:07:22;;;;;;;45.88;25.52;;;;;;;;;;5072449;28;20105;-72
2022/01/11 12:09:51;;;;;;;46.83;26.97;;;;;;;;;;5089658;28;20056;-72
2022/01/11 12:12:37;;;;;;;48.55;26.45;;;;;;;;;;5109792;28;20044;-76
2022/01/11 12:15:23;;;;;;;48.93;27.90;;;;;;;;;;5110240;28;20051;-77
2022/01/11 12:18:09;;;;;;;50.15;26.98;;;;;;;;;;5109731;28;20105;-76
2022/01/11 12:20:46;;;;;;;48.90;27.73;;;;;;;;;;5107889;28;20518;-75
2022/01/11 12:23:32;;;;;;;48.58;26.77;;;;;;;;;;5111731;28;20053;-74
2022/01/11 12:26:07;;;;;;;51.97;28.37;;;;;;;;;;5071587;28;20411;-77
2022/01/11 12:28:33;;;;;;;50.60;28.92;;;;;;;;;;5113291;28;20163;-72
2022/01/11 12:31:21;;;;;;;50.80;27.48;;;;;;;;;;5112531;28;20068;-73
2022/01/11 12:33:48;;;;;;;48.93;29.33;;;;;;;;;;5092553;28;20464;-73
2022/01/11 12:36:14;;;;;;;47.60;28.30;;;;;;;;;;5094420;28;20082;-78
2022/01/11 12:38:58;;;;;;;52.72;28.83;;;;;;;;;;5098098;28;20047;-76
2022/01/11 12:41:35;;;;;;;47.27;27.33;;;;;;;;;;5109715;28;20044;-74
2022/01/11 12:47:05;;;;;;;47.60;26.73;;;;;;;;;;5111549;28;20511;-73
2022/01/11 12:49:32;;;;;;;49.55;28.55;;;;;;;;;;5112237;28;20526;-74
2022/01/11 12:52:17;;;;;;;50.23;26.77;;;;;;;;;;5099932;27;20417;-75
2022/01/11 12:54:47;;;;;;;49.57;28.63;;;;;;;;;;5106312;28;20515;-75
2022/01/11 12:57:15;;;;;;;50.20;26.00;;;;;;;;;;5106412;28;20048;-76
2022/01/11 12:59:49;;;;;;;53.50;28.53;;;;;;;;;;5085253;28;20097;-76
2022/01/11 13:02:19;;;;;;;45.87;25.60;;;;;;;;;;5101683;28;20130;-74
2022/01/11 13:04:45;;;;;;;46.10;26.30;;;;;;;;;;5109937;28;20048;-74
2022/01/11 13:07:16;;;;;;;50.30;26.83;;;;;;;;;;5084903;28;20052;-74
2022/01/11 13:09:45;;;;;;;47.50;26.80;;;;;;;;;;5073888;28;20086;-74
2022/01/11 13:12:11;;;;;;;45.40;25.87;;;;;;;;;;5086382;28;20113;-75
2022/01/11 13:14:41;;;;;;;;;;;;;;;;;;5073802;28;20071;-75
2022/01/11 13:17:07;;;;;;;47.83;26.47;;;;;;;;;;5073362;28;20045;-75
2022/01/11 13:19:34;;;;;;;45.58;24.92;;;;;;;;;;5072882;28;20062;-75
2022/01/11 13:22:04;;;;;;;48.87;26.60;;;;;;;;;;5080667;28;20048;-75
2022/01/11 13:24:35;;;;;;;47.00;25.98;;;;;;;;;;5124677;27;20071;-75
2022/01/11 13:27:08;;;;;;;48.50;24.45;;;;;;;;;;5092986;28;20064;-70
2022/01/11 13:29:34;;;;;;;46.13;25.90;;;;;;;;;;5083413;28;20036;-74
2022/01/11 13:32:00;;;;;;;42.42;24.52;;;;;;;;;;5087713;28;20070;-72
2022/01/11 13:34:26;;;;;;;45.13;23.67;;;;;;;;;;5105584;27;20040;-72
2022/01/11 13:36:54;;;;;;;47.92;25.35;;;;;;;;;;5084655;28;20149;-73
2022/01/11 13:39:21;;;;;;;42.03;23.38;;;;;;;;;;5090717;28;20124;-71
2022/01/11 13:41:52;;;;;;;44.70;23.17;;;;;;;;;;5082986;28;20048;-75
2022/01/11 13:44:19;;;;;;;44.85;23.92;;;;;;;;;;5086661;28;20040;-75
2022/01/11 13:46:51;;;;;;;45.55;23.00;;;;;;;;;;5080477;28;20141;-76
2022/01/11 13:49:18;;;;;;;42.78;23.02;;;;;;;;;;5088613;28;20052;-72
2022/01/11 13:51:46;;;;;;;41.23;22.80;;;;;;;;;;5092267;28;20475;-72
2022/01/11 13:54:13;;;;;;;42.17;21.70;;;;;;;;;;5092056;28;20040;-72
2022/01/11 13:56:41;;;;;;;;;;;;;;;;;;5092546;28;20207;-78
2022/01/11 13:59:07;;;;;;;40.40;22.17;;;;;;;;;;5088431;28;19920;-74
2022/01/11 14:01:33;;;;;;;37.30;20.52;;;;;;;;;;5085790;28;20139;-76
2022/01/11 14:04:17;;;;;;;38.35;21.98;;;;;;;;;;5084691;28;20054;-75
2022/01/11 14:06:45;;;;;;;37.90;19.80;;;;;;;;;;5079017;28;20492;-74
2022/01/11 14:09:17;;;;;;;39.93;20.63;;;;;;;;;;5110148;28;20131;-72
2022/01/11 14:12:03;;;;;;;35.80;20.45;;;;;;;;;;5113159;28;20064;-71
2022/01/11 14:14:29;;;;;;;38.63;20.65;;;;;;;;;;5113317;28;20051;-72
2022/01/11 14:16:55;;;;;;;40.53;19.98;;;;;;;;;;5112789;28;20039;-70
2022/01/11 14:19:23;;;;;;;;;;;;;;;;;;5113695;28;20145;-75
2022/01/11 14:21:52;;;;;;;40.85;20.58;;;;;;;;;;5112729;28;19920;-74
2022/01/11 14:24:19;;;;;;;35.33;20.52;;;;;;;;;;5112143;28;20055;-72
2022/01/11 14:26:46;;;;;;;37.13;20.10;;;;;;;;;;5108954;27;20051;-73
2022/01/11 14:29:20;;;;;;;37.45;19.75;;;;;;;;;;5115337;27;20395;-69
2022/01/11 14:32:02;;;;;;;37.75;20.85;;;;;;;;;;5124087;27;20122;-71
2022/01/11 14:34:28;;;;;;;38.83;21.25;;;;;;;;;;5129192;27;20068;-70